Time;durP1;ratioP1;P1;durP2;ratioP2;P2;SDS_P1;SDS_P2;PMS_P1;PMS_P2;Temp;Humidity;BMP_temperature;BMP_pressure;BME280_temperature;BME280_humidity;BME280_pressure;Samples;Min_cycle;Max_cycle;Signal;HPM_P1;HPM_P2
2023/04/29 00:01:42;;;;;;;38.33;29.02;;;;;;;9.21;100.00;101307.66;4986589;28;20030;-66
2023/04/29 00:04:08;;;;;;;40.47;29.38;;;;;;;9.18;100.00;101312.69;4988364;28;20022;-66
2023/04/29 00:06:33;;;;;;;45.47;29.27;;;;;;;9.16;100.00;101310.03;4974142;28;20022;-66
2023/04/29 00:08:58;;;;;;;39.05;28.15;;;;;;;9.13;100.00;101310.78;4988231;28;20463;-67
2023/04/29 00:11:24;;;;;;;34.97;26.58;;;;;;;9.13;100.00;101315.06;4986961;28;20030;-66
2023/04/29 00:13:49;;;;;;;36.67;28.38;;;;;;;9.10;100.00;101312.34;4987152;28;20030;-67
2023/04/29 00:16:14;;;;;;;37.90;28.88;;;;;;;9.09;100.00;101319.22;4986427;28;20039;-66
2023/04/29 00:18:40;;;;;;;39.60;28.17;;;;;;;9.08;100.00;101312.28;4976789;28;20101;-67
2023/04/29 00:21:05;;;;;;;38.60;29.33;;;;;;;9.07;100.00;101313.09;4981265;28;20019;-66
2023/04/29 00:23:32;;;;;;;39.38;28.65;;;;;;;9.06;100.00;101311.31;4979686;28;20495;-66
2023/04/29 00:25:57;;;;;;;38.85;29.60;;;;;;;9.04;100.00;101315.53;4983158;28;20031;-66
2023/04/29 00:28:22;;;;;;;36.25;27.83;;;;;;;9.01;100.00;101325.75;4979081;28;20037;-66
2023/04/29 00:30:48;;;;;;;36.17;27.75;;;;;;;8.98;100.00;101318.72;4986193;28;20029;-66
2023/04/29 00:33:13;;;;;;;39.15;28.50;;;;;;;8.98;100.00;101325.56;4987620;28;20027;-66
2023/04/29 00:35:38;;;;;;;38.83;29.75;;;;;;;8.98;100.00;101325.56;4974569;28;20037;-67
2023/04/29 00:38:04;;;;;;;34.20;26.98;;;;;;;8.97;100.00;101334.16;4986938;28;20098;-66
2023/04/29 00:40:29;;;;;;;35.63;27.67;;;;;;;8.94;100.00;101332.31;4987231;28;20026;-66
2023/04/29 00:42:54;;;;;;;35.13;28.33;;;;;;;8.92;100.00;101330.47;4987315;28;20116;-67
2023/04/29 00:45:19;;;;;;;34.38;27.45;;;;;;;8.91;100.00;101333.84;4987291;28;20061;-66
2023/04/29 00:47:45;;;;;;;36.75;28.27;;;;;;;8.88;100.00;101335.50;4987678;28;20109;-66
2023/04/29 00:50:10;;;;;;;30.10;26.77;;;;;;;8.85;100.00;101340.50;4986875;28;20037;-67
2023/04/29 00:52:37;;;;;;;33.65;28.27;;;;;;;8.83;100.00;101336.97;4987296;28;20491;-66
2023/04/29 00:55:04;;;;;;;33.85;28.63;;;;;;;8.81;100.00;101336.03;4983584;28;20360;-66
2023/04/29 00:57:30;;;;;;;31.63;26.65;;;;;;;8.79;100.00;101341.94;4968226;28;20046;-67
2023/04/29 00:59:57;;;;;;;38.88;27.42;;;;;;;8.77;100.00;101344.44;4984874;28;20026;-66
2023/04/29 01:02:24;;;;;;;30.33;27.08;;;;;;;8.77;100.00;101345.34;4977368;28;20117;-66
2023/04/29 01:04:49;;;;;;;31.27;26.45;;;;;;;8.76;100.00;101343.56;4980978;28;20031;-66
2023/04/29 01:07:21;;;;;;;33.03;26.63;;;;;;;8.76;100.00;101345.28;4978533;28;20049;-66
2023/04/29 01:09:54;;;;;;;29.63;25.55;;;;;;;8.74;100.00;101346.91;4969592;28;20027;-66
2023/04/29 01:12:33;;;;;;;29.52;26.45;;;;;;;8.70;100.00;101352.72;4968221;28;20027;-67
2023/04/29 01:15:13;;;;;;;30.02;25.20;;;;;;;8.69;100.00;101358.72;4956685;28;20031;-67
2023/04/29 01:17:43;;;;;;;27.17;24.25;;;;;;;8.67;100.00;101360.34;4968233;28;20051;-66
2023/04/29 01:20:09;;;;;;;27.95;23.13;;;;;;;8.66;100.00;101359.44;4968526;28;20078;-66
2023/04/29 01:22:36;;;;;;;28.35;23.85;;;;;;;8.64;100.00;101366.22;4969388;28;20034;-66
2023/04/29 01:25:01;;;;;;;28.05;23.70;;;;;;;8.61;100.00;101359.22;4971785;28;20026;-67
2023/04/29 01:27:45;;;;;;;27.95;24.63;;;;;;;8.59;100.00;101366.00;4972359;28;20034;-67
2023/04/29 01:30:30;;;;;;;30.02;25.35;;;;;;;8.58;100.00;101371.97;4971604;28;20030;-67
2023/04/29 01:33:28;;;;;;;35.60;26.48;;;;;;;8.56;100.00;101368.44;4961372;28;20113;-66
2023/04/29 01:36:06;;;;;;;29.20;26.02;;;;;;;8.56;100.00;101370.13;4957650;28;20210;-66
2023/04/29 01:38:40;;;;;;;31.83;27.65;;;;;;;8.55;100.00;101370.91;4971332;28;20181;-65
2023/04/29 01:41:06;;;;;;;33.10;26.90;;;;;;;8.54;100.00;101370.03;4971172;28;20377;-67
2023/04/29 01:43:33;;;;;;;30.55;26.95;;;;;;;8.56;100.00;101375.31;4971138;28;20033;-66
2023/04/29 01:45:59;;;;;;;34.28;28.08;;;;;;;8.54;100.00;101382.94;4970896;28;20026;-67
2023/04/29 01:48:25;;;;;;;34.10;27.55;;;;;;;8.53;100.00;101379.47;4971016;28;20022;-66
2023/04/29 01:50:51;;;;;;;33.45;28.48;;;;;;;8.53;100.00;101378.56;4970967;28;20031;-66
2023/04/29 01:53:16;;;;;;;33.88;28.08;;;;;;;8.52;100.00;101379.41;4973758;28;20382;-66
2023/04/29 01:55:42;;;;;;;36.17;28.88;;;;;;;8.51;100.00;101381.09;4990597;28;20026;-66
2023/04/29 01:58:11;;;;;;;36.75;30.40;;;;;;;8.52;100.00;101375.13;4974138;28;20031;-66
2023/04/29 02:00:37;;;;;;;37.10;30.15;;;;;;;8.50;100.00;101374.16;4971359;28;20030;-67
2023/04/29 02:03:03;;;;;;;36.63;31.27;;;;;;;8.50;100.00;101376.75;4971182;28;20711;-66
2023/04/29 02:05:32;;;;;;;38.75;32.03;;;;;;;8.52;100.00;101387.16;4970918;28;20023;-67
2023/04/29 02:07:57;;;;;;;33.65;28.55;;;;;;;8.52;100.00;101388.03;4987122;28;20120;-66
2023/04/29 02:10:23;;;;;;;43.42;31.33;;;;;;;8.52;100.00;101387.16;4989981;28;20105;-67
2023/04/29 02:12:48;;;;;;;43.75;32.88;;;;;;;8.51;100.00;101386.25;4989191;28;20644;-67
2023/04/29 02:15:13;;;;;;;40.13;30.52;;;;;;;8.52;100.00;101393.22;4989432;28;20030;-66
2023/04/29 02:17:39;;;;;;;40.63;32.78;;;;;;;8.51;100.00;101395.69;4989123;28;20085;-66
2023/04/29 02:20:06;;;;;;;41.45;31.70;;;;;;;8.51;100.00;101400.84;4980513;28;20142;-66
2023/04/29 02:22:31;;;;;;;41.95;33.00;;;;;;;8.50;100.00;101404.25;4970520;28;20023;-66
2023/04/29 02:24:57;;;;;;;44.78;32.63;;;;;;;8.51;100.00;101400.84;4970813;28;20026;-66
2023/04/29 02:27:22;;;;;;;44.47;32.10;;;;;;;8.51;100.00;101401.75;4970629;28;20023;-66
2023/04/29 02:29:47;;;;;;;45.65;34.25;;;;;;;8.50;100.00;101410.31;4970041;28;20050;-66
2023/04/29 02:32:14;;;;;;;43.70;31.88;;;;;;;8.49;100.00;101412.84;4973431;28;20102;-66
2023/04/29 02:34:40;;;;;;;39.97;31.38;;;;;;;8.48;100.00;101411.94;4988688;28;20105;-66
2023/04/29 02:37:05;;;;;;;44.90;32.17;;;;;;;8.48;100.00;101418.78;4989078;28;20531;-66
2023/04/29 02:39:30;;;;;;;42.88;31.48;;;;;;;8.49;100.00;101418.00;4988803;28;20033;-67
2023/04/29 02:41:56;;;;;;;49.10;34.70;;;;;;;8.47;100.00;101420.47;4989202;28;20158;-66
2023/04/29 02:44:23;;;;;;;44.97;32.13;;;;;;;8.47;100.00;101429.94;4989286;28;20109;-66
2023/04/29 02:46:49;;;;;;;49.65;32.88;;;;;;;8.48;100.00;101436.88;4988928;28;20493;-66
2023/04/29 02:49:14;;;;;;;50.85;34.45;;;;;;;8.46;100.00;101423.88;4989383;28;20034;-66
2023/04/29 02:51:40;;;;;;;48.08;33.60;;;;;;;8.44;100.00;101438.41;4988672;28;20014;-66
2023/04/29 02:54:05;;;;;;;43.65;31.52;;;;;;;8.44;100.00;101442.72;4989524;28;20041;-66
2023/04/29 02:56:31;;;;;;;47.65;33.90;;;;;;;8.43;100.00;101448.69;4988583;28;20052;-67
2023/04/29 02:58:56;;;;;;;49.35;34.13;;;;;;;8.43;100.00;101446.09;4979573;28;20435;-66
2023/04/29 03:01:23;;;;;;;47.83;34.38;;;;;;;8.43;100.00;101448.69;4985406;28;20032;-66
2023/04/29 03:03:48;;;;;;;51.55;35.75;;;;;;;8.41;100.00;101448.59;4988849;28;20038;-67
2023/04/29 03:06:14;;;;;;;53.70;35.53;;;;;;;8.39;100.00;101448.53;4975337;28;20610;-67
2023/04/29 03:08:40;;;;;;;49.45;36.15;;;;;;;8.39;100.00;101457.97;4989457;28;20023;-67
2023/04/29 03:11:05;;;;;;;54.38;33.95;;;;;;;8.38;100.00;101451.91;4988689;28;20029;-66
2023/04/29 03:13:30;;;;;;;49.83;35.28;;;;;;;8.38;100.00;101454.50;4988933;28;20022;-67
2023/04/29 03:15:58;;;;;;;48.10;33.63;;;;;;;8.36;100.00;101453.56;4987504;28;20090;-66
2023/04/29 03:18:23;;;;;;;49.15;34.55;;;;;;;8.34;100.00;101452.56;4988162;28;20475;-67
2023/04/29 03:20:49;;;;;;;53.88;34.03;;;;;;;8.33;100.00;101455.94;4987788;28;20031;-66
2023/04/29 03:23:14;;;;;;;50.97;33.83;;;;;;;8.32;100.00;101456.78;4988185;28;20066;-66
2023/04/29 03:25:39;;;;;;;52.83;35.80;;;;;;;8.31;100.00;101464.44;4987597;28;20372;-67
2023/04/29 03:28:05;;;;;;;47.92;34.53;;;;;;;8.30;100.00;101468.72;4988172;28;20081;-67
2023/04/29 03:30:31;;;;;;;50.33;35.42;;;;;;;8.30;100.00;101468.72;4988122;28;20018;-67
2023/04/29 03:32:56;;;;;;;54.65;35.67;;;;;;;8.30;100.00;101476.47;4988551;28;20026;-66
2023/04/29 03:35:21;;;;;;;52.00;34.67;;;;;;;8.29;100.00;101475.56;4984902;28;20027;-66
2023/04/29 03:37:47;;;;;;;53.97;34.72;;;;;;;8.31;100.00;101474.78;4969242;28;20025;-67
2023/04/29 03:40:12;;;;;;;49.95;34.00;;;;;;;8.28;100.00;101475.50;4970870;28;20076;-66
2023/04/29 03:42:38;;;;;;;49.05;34.00;;;;;;;8.26;100.00;101475.41;4988664;28;20154;-66
2023/04/29 03:45:04;;;;;;;50.38;33.95;;;;;;;8.25;100.00;101475.34;4987068;28;20026;-66
2023/04/29 03:47:29;;;;;;;49.55;33.00;;;;;;;8.26;100.00;101477.09;4987584;28;20081;-67
2023/04/29 03:49:54;;;;;;;52.22;33.90;;;;;;;8.26;100.00;101482.25;4973444;28;20030;-66
2023/04/29 03:52:20;;;;;;;49.33;33.35;;;;;;;8.26;100.00;101487.44;4977120;28;20084;-67
2023/04/29 03:54:45;;;;;;;48.28;32.13;;;;;;;8.26;100.00;101483.16;4987729;28;20534;-66
2023/04/29 03:57:11;;;;;;;46.08;32.05;;;;;;;8.25;100.00;101486.56;4979257;28;20054;-66
2023/04/29 03:59:36;;;;;;;45.38;31.35;;;;;;;8.24;100.00;101486.50;4968844;28;20491;-66
2023/04/29 04:02:01;;;;;;;48.17;33.40;;;;;;;8.25;100.00;101485.66;4969028;28;20038;-67
2023/04/29 04:04:27;;;;;;;45.45;31.35;;;;;;;8.25;100.00;101488.25;4969166;28;20034;-66
2023/04/29 04:06:52;;;;;;;45.40;31.40;;;;;;;8.24;100.00;101494.25;4976758;28;20093;-66
2023/04/29 04:09:17;;;;;;;42.75;31.50;;;;;;;8.23;100.00;101488.19;4987468;28;20037;-67
2023/04/29 04:11:43;;;;;;;49.28;33.15;;;;;;;8.24;100.00;101496.81;4987775;28;20037;-66
2023/04/29 04:14:09;;;;;;;47.25;33.15;;;;;;;8.25;100.00;101501.16;4987240;28;20387;-66
2023/04/29 04:16:34;;;;;;;51.63;34.05;;;;;;;8.24;100.00;101499.41;4987431;28;20077;-67
2023/04/29 04:18:59;;;;;;;50.42;33.80;;;;;;;8.24;100.00;101500.25;4986978;28;20061;-67
2023/04/29 04:21:26;;;;;;;50.20;32.80;;;;;;;8.23;100.00;101500.19;4987453;28;20420;-67
2023/04/29 04:23:51;;;;;;;42.65;32.72;;;;;;;8.24;100.00;101510.59;4986044;28;20041;-66
2023/04/29 04:26:17;;;;;;;46.75;32.40;;;;;;;8.23;100.00;101510.50;4985529;28;20026;-67
2023/04/29 04:28:42;;;;;;;46.45;32.65;;;;;;;8.22;100.00;101511.34;4984774;28;20065;-66
2023/04/29 04:31:08;;;;;;;45.95;32.80;;;;;;;8.23;100.00;101502.78;4985521;28;20117;-66
2023/04/29 04:33:33;;;;;;;50.05;32.05;;;;;;;8.22;100.00;101507.03;4984790;28;20072;-66
2023/04/29 04:35:58;;;;;;;44.55;32.95;;;;;;;8.23;100.00;101520.84;4985453;28;20033;-67
2023/04/29 04:38:24;;;;;;;38.42;29.25;;;;;;;8.22;100.00;101519.94;4985851;28;20030;-66
2023/04/29 04:40:49;;;;;;;38.45;29.50;;;;;;;8.22;100.00;101519.94;4984787;28;20348;-66
2023/04/29 04:43:14;;;;;;;39.50;28.88;;;;;;;8.23;100.00;101524.31;4984671;28;20109;-66
2023/04/29 04:45:40;;;;;;;38.17;29.30;;;;;;;8.23;100.00;101528.59;4985324;28;20478;-67
2023/04/29 04:48:05;;;;;;;38.33;28.13;;;;;;;8.22;100.00;101529.41;4984418;28;20281;-66
2023/04/29 04:50:31;;;;;;;46.35;28.67;;;;;;;8.22;100.00;101529.41;4983679;28;20026;-66
2023/04/29 04:52:56;;;;;;;38.00;27.92;;;;;;;8.22;100.00;101537.16;4985146;28;20021;-67
2023/04/29 04:55:22;;;;;;;37.85;28.83;;;;;;;8.22;100.00;101548.34;4983685;28;20419;-67
2023/04/29 04:57:47;;;;;;;36.38;27.42;;;;;;;8.22;100.00;101547.47;4987685;28;20034;-67
2023/04/29 05:00:13;;;;;;;40.45;27.92;;;;;;;8.22;100.00;101552.66;4989623;28;20053;-65
2023/04/29 05:02:38;;;;;;;39.50;28.08;;;;;;;8.23;100.00;101557.91;4990841;28;20110;-66
2023/04/29 05:05:04;;;;;;;37.33;26.98;;;;;;;8.23;100.00;101562.16;4983950;28;20022;-66
2023/04/29 05:07:30;;;;;;;38.45;27.58;;;;;;;8.24;100.00;101561.38;4985265;28;20030;-66
2023/04/29 05:09:55;;;;;;;36.65;27.02;;;;;;;8.24;100.00;101561.38;4991299;28;20467;-66
2023/04/29 05:12:20;;;;;;;37.80;26.30;;;;;;;8.23;100.00;101564.75;4978898;28;20033;-67
2023/04/29 05:14:46;;;;;;;37.72;27.38;;;;;;;8.25;100.00;101569.19;4990173;28;20027;-66
2023/04/29 05:17:11;;;;;;;34.90;26.60;;;;;;;8.25;100.00;101566.63;4978076;28;20042;-67
2023/04/29 05:19:36;;;;;;;37.55;27.25;;;;;;;8.26;100.00;101568.38;4990931;28;20036;-66
2023/04/29 05:22:01;;;;;;;35.30;26.50;;;;;;;8.26;100.00;101570.97;4990473;28;20691;-66
2023/04/29 05:24:28;;;;;;;35.80;26.40;;;;;;;8.28;100.00;101578.78;4986750;28;20080;-66
2023/04/29 05:26:53;;;;;;;33.47;26.55;;;;;;;8.28;100.00;101579.69;4971718;28;20499;-66
2023/04/29 05:29:19;;;;;;;31.55;25.23;;;;;;;8.28;100.00;101589.09;4971221;28;20155;-67
2023/04/29 05:31:44;;;;;;;33.97;25.80;;;;;;;8.28;100.00;101586.53;4971725;28;20018;-67
2023/04/29 05:34:10;;;;;;;36.65;26.65;;;;;;;8.27;100.00;101589.94;4972375;28;20483;-66
2023/04/29 05:36:35;;;;;;;34.17;25.85;;;;;;;8.28;100.00;101594.28;4971797;28;20035;-66
2023/04/29 05:39:00;;;;;;;34.33;25.13;;;;;;;8.28;100.00;101594.28;4972412;28;20383;-67
2023/04/29 05:41:26;;;;;;;33.88;25.55;;;;;;;8.28;100.00;101595.19;4971548;28;20099;-66
2023/04/29 05:43:51;;;;;;;31.88;26.38;;;;;;;8.28;100.00;101594.28;4972464;28;20019;-67
2023/04/29 05:46:17;;;;;;;36.15;26.55;;;;;;;8.28;100.00;101594.28;4971934;28;20031;-66
2023/04/29 05:48:42;;;;;;;35.08;25.13;;;;;;;8.28;100.00;101604.59;4972081;28;20019;-66
2023/04/29 05:51:07;;;;;;;35.53;27.35;;;;;;;8.28;100.00;101605.50;4972019;28;20053;-67
2023/04/29 05:53:34;;;;;;;35.35;25.70;;;;;;;8.28;100.00;101609.78;4972319;28;20026;-66
2023/04/29 05:56:03;;;;;;;34.65;25.33;;;;;;;8.28;100.00;101614.94;4971365;28;20022;-66
2023/04/29 05:58:29;;;;;;;34.42;25.92;;;;;;;8.29;100.00;101616.72;4971941;28;20045;-66
2023/04/29 06:00:54;;;;;;;31.45;25.65;;;;;;;8.30;100.00;101613.31;4971301;28;20027;-66
2023/04/29 06:03:19;;;;;;;34.88;25.73;;;;;;;8.31;100.00;101629.72;4972273;28;20026;-66
2023/04/29 06:05:45;;;;;;;34.53;26.50;;;;;;;8.31;100.00;101629.72;4971202;28;20031;-67
2023/04/29 06:08:10;;;;;;;30.95;24.90;;;;;;;8.32;100.00;101632.38;4983511;28;20294;-66
2023/04/29 06:10:35;;;;;;;35.63;25.63;;;;;;;8.33;100.00;101639.31;4970559;28;20447;-66
2023/04/29 06:13:01;;;;;;;28.88;25.23;;;;;;;8.34;100.00;101635.03;4971556;28;20463;-66
2023/04/29 06:15:27;;;;;;;29.33;25.17;;;;;;;8.34;100.00;101641.09;4971183;28;20253;-66
2023/04/29 06:17:52;;;;;;;29.63;24.85;;;;;;;8.35;100.00;101641.97;4969684;28;20022;-67
2023/04/29 06:20:17;;;;;;;33.15;24.90;;;;;;;8.33;100.00;101639.31;4981839;28;20022;-67
2023/04/29 06:22:43;;;;;;;36.92;26.85;;;;;;;8.35;100.00;101645.44;4971677;28;20023;-66
2023/04/29 06:25:08;;;;;;;33.22;25.77;;;;;;;8.36;100.00;101647.25;4961980;28;20058;-67
2023/04/29 06:27:33;;;;;;;33.33;24.15;;;;;;;8.38;100.00;101652.50;4954991;28;20384;-66
2023/04/29 06:29:59;;;;;;;34.08;25.08;;;;;;;8.38;100.00;101655.94;4960412;28;20114;-66
2023/04/29 06:32:24;;;;;;;34.70;25.42;;;;;;;8.41;100.00;101655.22;4961214;28;20018;-67
2023/04/29 06:34:50;;;;;;;27.80;24.08;;;;;;;8.41;100.00;101655.22;4974690;28;20022;-66
2023/04/29 06:37:15;;;;;;;30.70;25.70;;;;;;;8.43;100.00;101665.66;4965229;28;20531;-67
2023/04/29 06:39:40;;;;;;;31.75;24.27;;;;;;;8.46;100.00;101670.97;4978308;28;20033;-66
2023/04/29 06:42:06;;;;;;;33.75;25.55;;;;;;;8.46;100.00;101665.81;4967098;28;20039;-66
2023/04/29 06:44:31;;;;;;;29.33;24.42;;;;;;;8.47;100.00;101670.19;4976875;28;20566;-66
2023/04/29 06:46:57;;;;;;;30.92;25.05;;;;;;;8.48;100.00;101671.94;4970782;28;20382;-66
2023/04/29 06:49:22;;;;;;;30.58;24.55;;;;;;;8.52;100.00;101686.81;4981096;28;20111;-66
2023/04/29 06:51:47;;;;;;;33.65;24.23;;;;;;;8.53;100.00;101678.25;4968961;28;20557;-65
2023/04/29 06:54:13;;;;;;;27.77;22.63;;;;;;;8.57;100.00;101694.84;4979879;28;20566;-66
2023/04/29 06:56:38;;;;;;;30.95;25.10;;;;;;;8.61;100.00;101689.94;4966128;28;20037;-66
2023/04/29 06:59:03;;;;;;;29.90;23.75;;;;;;;8.66;100.00;101695.34;4977216;28;20434;-66
2023/04/29 07:01:29;;;;;;;29.58;23.02;;;;;;;8.70;100.00;101691.22;4957240;28;20045;-66
2023/04/29 07:03:54;;;;;;;29.13;24.52;;;;;;;8.74;100.00;101698.34;4957994;28;20045;-66
2023/04/29 07:06:20;;;;;;;29.80;23.33;;;;;;;8.77;100.00;101704.56;4958599;28;20030;-67
2023/04/29 07:08:45;;;;;;;28.88;23.45;;;;;;;8.83;100.00;101713.44;4965227;28;20137;-66
2023/04/29 07:11:11;;;;;;;30.60;23.00;;;;;;;8.84;100.00;101716.09;4952821;28;20499;-66
2023/04/29 07:13:36;;;;;;;25.00;21.48;;;;;;;8.86;100.00;101722.25;4962127;28;20322;-66
2023/04/29 07:16:01;;;;;;;25.30;21.92;;;;;;;8.88;100.00;101712.91;4963007;28;20497;-67
2023/04/29 07:18:27;;;;;;;23.35;20.88;;;;;;;8.91;100.00;101726.75;4968968;28;20018;-66
2023/04/29 07:20:52;;;;;;;25.67;21.73;;;;;;;8.92;100.00;101721.69;4966013;28;20022;-67
2023/04/29 07:23:17;;;;;;;24.05;19.83;;;;;;;8.93;100.00;101725.16;4962018;28;20038;-65
2023/04/29 07:25:42;;;;;;;24.15;20.30;;;;;;;8.96;100.00;101722.75;4966385;28;20038;-66
2023/04/29 07:28:08;;;;;;;27.20;20.23;;;;;;;9.00;100.00;101732.41;4954113;28;20136;-66
2023/04/29 07:30:33;;;;;;;21.67;19.38;;;;;;;9.03;100.00;101730.00;4970251;28;20022;-65
2023/04/29 07:32:59;;;;;;;22.67;20.05;;;;;;;9.07;100.00;101734.53;4964736;28;20019;-67
2023/04/29 07:35:25;;;;;;;25.85;22.85;;;;;;;9.09;100.00;101743.25;4968639;28;20041;-67
2023/04/29 07:37:50;;;;;;;24.70;20.60;;;;;;;9.12;100.00;101743.41;4969540;28;20376;-66
2023/04/29 07:40:16;;;;;;;27.15;20.67;;;;;;;9.14;100.00;101738.31;4967117;28;20575;-66
2023/04/29 07:42:41;;;;;;;23.25;19.52;;;;;;;9.15;100.00;101737.53;4960526;28;20374;-66
2023/04/29 07:45:07;;;;;;;22.58;18.63;;;;;;;9.18;100.00;101741.94;4968396;28;20049;-67
2023/04/29 07:47:32;;;;;;;24.48;18.92;;;;;;;9.22;100.00;101741.31;4962502;28;20078;-66
2023/04/29 07:49:58;;;;;;;20.13;17.48;;;;;;;9.24;100.00;101752.63;4970182;28;20026;-66
2023/04/29 07:52:23;;;;;;;23.95;18.75;;;;;;;9.27;100.00;101750.19;4965963;28;20019;-66
2023/04/29 07:54:48;;;;;;;20.50;17.63;;;;;;;9.31;100.00;101754.72;4972975;28;20023;-68
2023/04/29 07:57:14;;;;;;;19.85;17.40;;;;;;;9.37;100.00;101749.84;4960755;28;20027;-66
2023/04/29 07:59:39;;;;;;;22.15;18.40;;;;;;;9.44;100.00;101756.25;4967544;28;20505;-66
2023/04/29 08:02:05;;;;;;;21.20;18.33;;;;;;;9.50;100.00;101758.25;4959515;28;20452;-67
2023/04/29 08:04:30;;;;;;;20.10;18.00;;;;;;;9.55;100.00;101761.09;4967973;28;20097;-67
2023/04/29 08:06:55;;;;;;;18.88;16.80;;;;;;;9.58;100.00;101764.72;4950980;28;20492;-66
2023/04/29 08:09:21;;;;;;;21.25;17.67;;;;;;;9.63;100.00;101766.63;4961464;28;20027;-66
2023/04/29 08:11:46;;;;;;;20.33;18.23;;;;;;;9.65;100.00;101765.00;4952060;28;20736;-66
2023/04/29 08:14:11;;;;;;;23.38;17.52;;;;;;;9.68;100.00;101776.41;4962797;28;20022;-66
2023/04/29 08:16:37;;;;;;;17.77;15.88;;;;;;;9.71;100.00;101775.69;4964762;28;20051;-66
2023/04/29 08:19:02;;;;;;;21.50;18.05;;;;;;;9.73;100.00;101774.06;4958281;28;20506;-66
2023/04/29 08:21:27;;;;;;;19.60;17.20;;;;;;;9.77;100.00;101777.72;4957520;28;20023;-67
2023/04/29 08:23:54;;;;;;;18.45;16.27;;;;;;;9.81;100.00;101783.09;4957567;28;20471;-66
2023/04/29 08:26:19;;;;;;;18.75;15.65;;;;;;;9.84;100.00;101778.06;4967583;28;20034;-66
2023/04/29 08:28:45;;;;;;;17.90;15.52;;;;;;;9.90;100.00;101777.50;4955464;28;20126;-66
2023/04/29 08:31:18;;;;;;;18.05;15.98;;;;;;;10.00;100.00;101778.81;4966258;28;20062;-66
2023/04/29 08:33:43;;;;;;;18.23;16.23;;;;;;;10.12;100.00;101786.34;4971353;28;20034;-66
2023/04/29 08:36:08;;;;;;;19.08;15.35;;;;;;;10.26;100.00;101784.41;4967223;28;20084;-66
2023/04/29 08:38:34;;;;;;;16.65;13.93;;;;;;;10.42;100.00;101785.13;4960988;28;20518;-66
2023/04/29 08:41:00;;;;;;;16.60;14.80;;;;;;;10.61;100.00;101784.38;4961597;28;20035;-66
2023/04/29 08:43:25;;;;;;;16.17;13.77;;;;;;;10.81;100.00;101780.09;4967497;28;20027;-66
2023/04/29 08:45:51;;;;;;;16.73;14.65;;;;;;;10.97;100.00;101783.41;4978897;28;20088;-66
2023/04/29 08:48:17;;;;;;;14.63;13.15;;;;;;;11.07;100.00;101789.88;4963363;28;20086;-66
2023/04/29 08:50:43;;;;;;;17.10;14.90;;;;;;;11.14;100.00;101793.63;4960453;28;20035;-66
2023/04/29 08:53:10;;;;;;;15.55;13.98;;;;;;;11.18;100.00;101800.75;4963311;28;20030;-66
2023/04/29 08:55:41;;;;;;;14.20;12.75;;;;;;;11.20;100.00;101788.72;4973204;28;20067;-66
2023/04/29 08:58:07;;;;;;;15.35;13.75;;;;;;;11.25;100.00;101800.19;4967925;28;20584;-66
2023/04/29 09:00:34;;;;;;;13.63;12.38;;;;;;;11.28;100.00;101800.31;4974547;28;20436;-65
2023/04/29 09:03:03;;;;;;;15.82;12.75;;;;;;;11.34;100.00;101799.72;4963294;28;20035;-66
2023/04/29 09:05:28;;;;;;;15.88;12.68;;;;;;;11.39;100.00;101797.31;4971150;28;20027;-66
2023/04/29 09:07:56;;;;;;;13.82;12.43;;;;;;;11.49;100.00;101789.13;4967655;28;20025;-66
2023/04/29 09:10:22;;;;;;;15.25;13.20;;;;;;;11.68;100.00;101800.28;4961017;28;20581;-66
2023/04/29 09:12:47;;;;;;;13.80;12.40;;;;;;;11.83;100.00;101804.38;4967949;28;20023;-66
2023/04/29 09:15:12;;;;;;;13.93;12.50;;;;;;;11.97;100.00;101811.03;4963931;28;20054;-66
2023/04/29 09:17:41;;;;;;;13.85;12.43;;;;;;;12.11;100.00;101810.75;4977482;28;20090;-66
2023/04/29 09:20:22;;;;;;;16.48;13.07;;;;;;;12.23;100.00;101810.38;4969703;28;20039;-66
2023/04/29 09:22:54;;;;;;;14.75;13.32;;;;;;;12.38;100.00;101814.41;4973017;28;20184;-66
2023/04/29 09:25:20;;;;;;;14.50;12.82;;;;;;;12.49;100.00;101813.13;4954933;28;20030;-66
2023/04/29 09:27:45;;;;;;;12.82;11.52;;;;;;;12.75;100.00;101809.78;4967760;28;20035;-66
2023/04/29 09:30:12;;;;;;;15.20;12.63;;;;;;;12.94;100.00;101806.16;4958961;28;20029;-66
2023/04/29 09:32:38;;;;;;;13.10;11.80;;;;;;;13.02;100.00;101812.53;4954528;28;20034;-66
2023/04/29 09:35:26;;;;;;;13.25;10.95;;;;;;;13.14;100.00;101809.50;4957832;28;20025;-66
2023/04/29 09:38:06;;;;;;;13.32;12.00;;;;;;;13.25;100.00;101816.81;4962475;28;20039;-66
2023/04/29 09:40:33;;;;;;;12.95;10.88;;;;;;;13.23;100.00;101813.25;4983064;28;20488;-66
2023/04/29 09:42:59;;;;;;;13.63;11.27;;;;;;;13.21;100.00;101815.81;4979157;28;20022;-66
2023/04/29 09:45:32;;;;;;;14.52;11.45;;;;;;;13.21;100.00;101815.81;4976407;28;20029;-66
2023/04/29 09:48:02;;;;;;;13.68;12.25;;;;;;;13.23;100.00;101821.06;4979263;28;20106;-66
2023/04/29 09:50:27;;;;;;;12.93;10.98;;;;;;;13.28;100.00;101822.13;4963523;28;20136;-66
2023/04/29 09:52:53;;;;;;;12.82;11.02;;;;;;;13.33;100.00;101825.78;4978997;28;20141;-66
2023/04/29 09:55:18;;;;;;;10.77;9.48;;;;;;;13.42;100.00;101825.25;4986029;28;20549;-66
2023/04/29 09:57:44;;;;;;;12.38;9.65;;;;;;;13.46;100.00;101829.72;4987714;28;20022;-66
2023/04/29 10:00:11;;;;;;;11.15;9.82;;;;;;;13.53;100.00;101828.25;4985578;28;20444;-66
2023/04/29 10:02:40;;;;;;;10.52;9.23;;;;;;;13.68;100.00;101834.00;4987296;28;20038;-66
2023/04/29 10:05:06;;;;;;;10.95;9.52;;;;;;;13.61;100.00;101834.63;4980333;28;20018;-66
2023/04/29 10:07:32;;;;;;;11.20;9.57;;;;;;;13.60;100.00;101834.56;4970172;28;20027;-66
2023/04/29 10:09:57;;;;;;;12.63;9.82;;;;;;;13.47;100.00;101841.03;4969945;28;20027;-66
2023/04/29 10:12:25;;;;;;;11.00;9.90;;;;;;;13.35;100.00;101850.16;4968891;28;20054;-66
2023/04/29 10:15:06;;;;;;;12.45;10.60;;;;;;;13.26;100.00;101844.63;4971024;28;20026;-66
2023/04/29 10:17:31;;;;;;;;;;;;;;;13.23;100.00;101854.91;4971400;28;20046;-66
2023/04/29 10:20:06;;;;;;;11.25;9.75;;;;;;;13.23;100.00;101854.91;4970845;28;20388;-66
2023/04/29 10:22:53;;;;;;;10.57;9.43;;;;;;;13.30;100.00;101856.91;4970651;28;20030;-66
2023/04/29 10:25:20;;;;;;;12.23;10.63;;;;;;;13.34;100.00;101845.78;4971005;28;20027;-66
2023/04/29 10:27:47;;;;;;;10.65;9.45;;;;;;;13.35;100.00;101852.75;4988962;28;20387;-66
2023/04/29 10:30:15;;;;;;;11.15;10.00;;;;;;;13.34;100.00;101853.59;4989429;28;20345;-66
2023/04/29 10:32:41;;;;;;;12.40;9.48;;;;;;;13.32;100.00;101850.03;4989279;28;20026;-66
2023/04/29 10:35:12;;;;;;;11.63;10.02;;;;;;;13.29;100.00;101855.16;4988715;28;20026;-66
2023/04/29 10:37:38;;;;;;;10.90;9.68;;;;;;;13.19;100.00;101854.78;4965738;28;20474;-67
2023/04/29 10:40:10;;;;;;;11.25;10.10;;;;;;;13.11;100.00;101861.44;4988706;28;20042;-66
2023/04/29 10:42:42;;;;;;;10.73;9.32;;;;;;;13.03;100.00;101857.63;4989000;28;20084;-66
2023/04/29 10:45:17;;;;;;;11.43;9.95;;;;;;;13.00;100.00;101865.34;4988650;28;20056;-66
2023/04/29 10:48:07;;;;;;;11.88;10.63;;;;;;;12.96;100.00;101862.63;4988921;28;20026;-66
2023/04/29 10:50:48;;;;;;;11.43;9.65;;;;;;;12.94;100.00;101853.88;4989222;28;20356;-66
2023/04/29 10:53:22;;;;;;;10.27;9.27;;;;;;;12.95;100.00;101863.44;4987858;28;20432;-66
2023/04/29 10:55:53;;;;;;;12.02;9.40;;;;;;;12.97;100.00;101859.19;4988361;28;20014;-66
2023/04/29 10:58:35;;;;;;;;;;;;;;;13.02;100.00;101871.50;4989171;28;20053;-66
2023/04/29 11:01:00;;;;;;;11.38;10.18;;;;;;;13.08;100.00;101866.50;4989278;28;19914;-66
2023/04/29 11:03:46;;;;;;;11.05;9.43;;;;;;;13.08;100.00;101867.41;4988214;28;20498;-66
2023/04/29 11:06:11;;;;;;;11.07;9.00;;;;;;;13.11;100.00;101869.25;4974129;28;20061;-66
2023/04/29 11:08:38;;;;;;;11.27;10.18;;;;;;;13.11;100.00;101866.66;4967085;28;20027;-65